sensor_id;sensor_type;location;lat;lon;timestamp;P1;durP1;ratioP1;P2;durP2;ratioP2
5483;SDS011;2764;48.794;8.326;2023-03-03T00:00:48;77.57;;;41.80;;
5483;SDS011;2764;48.794;8.326;2023-03-03T00:01:51;66.70;;;40.85;;
5483;SDS011;2764;48.794;8.326;2023-03-03T00:02:56;70.75;;;43.85;;
5483;SDS011;2764;48.794;8.326;2023-03-03T00:04:01;70.53;;;41.92;;
5483;SDS011;2764;48.794;8.326;2023-03-03T00:05:05;67.45;;;42.75;;
5483;SDS011;2764;48.794;8.326;2023-03-03T00:06:11;70.57;;;42.78;;
5483;SDS011;2764;48.794;8.326;2023-03-03T00:07:15;72.15;;;43.40;;
5483;SDS011;2764;48.794;8.326;2023-03-03T00:08:25;78.95;;;41.25;;
5483;SDS011;2764;48.794;8.326;2023-03-03T00:09:27;71.50;;;42.85;;
5483;SDS011;2764;48.794;8.326;2023-03-03T00:10:29;70.07;;;42.15;;
5483;SDS011;2764;48.794;8.326;2023-03-03T00:11:34;67.72;;;41.25;;
5483;SDS011;2764;48.794;8.326;2023-03-03T00:12:36;67.82;;;41.55;;
5483;SDS011;2764;48.794;8.326;2023-03-03T00:13:49;71.15;;;42.70;;
5483;SDS011;2764;48.794;8.326;2023-03-03T00:14:54;69.80;;;41.83;;
5483;SDS011;2764;48.794;8.326;2023-03-03T00:16:43;69.07;;;40.92;;
5483;SDS011;2764;48.794;8.326;2023-03-03T00:17:32;59.88;;;38.05;;
5483;SDS011;2764;48.794;8.326;2023-03-03T00:18:35;67.78;;;42.05;;
5483;SDS011;2764;48.794;8.326;2023-03-03T00:19:41;72.18;;;42.42;;
5483;SDS011;2764;48.794;8.326;2023-03-03T00:20:51;73.15;;;42.50;;
5483;SDS011;2764;48.794;8.326;2023-03-03T00:21:55;61.72;;;39.65;;
5483;SDS011;2764;48.794;8.326;2023-03-03T00:24:40;68.10;;;39.90;;
5483;SDS011;2764;48.794;8.326;2023-03-03T00:25:42;62.85;;;39.13;;
5483;SDS011;2764;48.794;8.326;2023-03-03T00:26:48;69.80;;;39.58;;
5483;SDS011;2764;48.794;8.326;2023-03-03T00:27:54;63.15;;;38.35;;
5483;SDS011;2764;48.794;8.326;2023-03-03T00:28:57;65.05;;;39.08;;
5483;SDS011;2764;48.794;8.326;2023-03-03T00:29:59;60.03;;;37.25;;
5483;SDS011;2764;48.794;8.326;2023-03-03T00:31:02;60.65;;;37.00;;
5483;SDS011;2764;48.794;8.326;2023-03-03T00:33:24;61.67;;;38.70;;
5483;SDS011;2764;48.794;8.326;2023-03-03T00:34:36;62.92;;;38.13;;
5483;SDS011;2764;48.794;8.326;2023-03-03T00:35:38;62.50;;;36.63;;
5483;SDS011;2764;48.794;8.326;2023-03-03T00:36:42;66.85;;;38.35;;
5483;SDS011;2764;48.794;8.326;2023-03-03T00:37:45;68.18;;;39.42;;
5483;SDS011;2764;48.794;8.326;2023-03-03T00:38:50;63.85;;;39.05;;
5483;SDS011;2764;48.794;8.326;2023-03-03T00:39:52;67.65;;;40.65;;
5483;SDS011;2764;48.794;8.326;2023-03-03T00:40:58;67.80;;;39.80;;
5483;SDS011;2764;48.794;8.326;2023-03-03T00:42:00;69.47;;;40.25;;
5483;SDS011;2764;48.794;8.326;2023-03-03T00:43:25;58.22;;;37.35;;
5483;SDS011;2764;48.794;8.326;2023-03-03T00:46:53;71.40;;;43.15;;
5483;SDS011;2764;48.794;8.326;2023-03-03T00:47:59;74.50;;;41.17;;
5483;SDS011;2764;48.794;8.326;2023-03-03T00:49:33;65.00;;;39.72;;
5483;SDS011;2764;48.794;8.326;2023-03-03T00:50:35;62.85;;;39.13;;
5483;SDS011;2764;48.794;8.326;2023-03-03T00:51:41;79.20;;;43.58;;
5483;SDS011;2764;48.794;8.326;2023-03-03T00:52:45;62.53;;;39.58;;
5483;SDS011;2764;48.794;8.326;2023-03-03T00:53:59;66.22;;;39.00;;
5483;SDS011;2764;48.794;8.326;2023-03-03T00:55:02;74.90;;;42.78;;
5483;SDS011;2764;48.794;8.326;2023-03-03T00:56:06;64.93;;;38.42;;
5483;SDS011;2764;48.794;8.326;2023-03-03T00:57:08;70.05;;;39.03;;
5483;SDS011;2764;48.794;8.326;2023-03-03T00:58:10;66.30;;;39.30;;
5483;SDS011;2764;48.794;8.326;2023-03-03T00:59:12;59.67;;;38.15;;
5483;SDS011;2764;48.794;8.326;2023-03-03T01:00:14;63.75;;;37.50;;
5483;SDS011;2764;48.794;8.326;2023-03-03T01:01:17;62.55;;;36.97;;
5483;SDS011;2764;48.794;8.326;2023-03-03T01:02:20;68.40;;;40.08;;
5483;SDS011;2764;48.794;8.326;2023-03-03T01:03:25;67.45;;;39.38;;
5483;SDS011;2764;48.794;8.326;2023-03-03T01:04:29;63.17;;;36.17;;
5483;SDS011;2764;48.794;8.326;2023-03-03T01:05:31;67.75;;;38.50;;
5483;SDS011;2764;48.794;8.326;2023-03-03T01:06:34;61.35;;;37.45;;
5483;SDS011;2764;48.794;8.326;2023-03-03T01:07:36;61.40;;;37.97;;
5483;SDS011;2764;48.794;8.326;2023-03-03T01:08:39;55.80;;;36.30;;
5483;SDS011;2764;48.794;8.326;2023-03-03T01:09:41;61.95;;;36.55;;
5483;SDS011;2764;48.794;8.326;2023-03-03T01:10:45;60.10;;;35.92;;
5483;SDS011;2764;48.794;8.326;2023-03-03T01:11:53;60.90;;;36.38;;
5483;SDS011;2764;48.794;8.326;2023-03-03T01:12:56;62.25;;;36.95;;
5483;SDS011;2764;48.794;8.326;2023-03-03T01:13:59;61.20;;;37.75;;
5483;SDS011;2764;48.794;8.326;2023-03-03T01:15:01;59.70;;;37.65;;
5483;SDS011;2764;48.794;8.326;2023-03-03T01:16:03;61.28;;;37.05;;
5483;SDS011;2764;48.794;8.326;2023-03-03T01:17:07;67.57;;;38.78;;
5483;SDS011;2764;48.794;8.326;2023-03-03T01:18:10;68.88;;;39.10;;
5483;SDS011;2764;48.794;8.326;2023-03-03T01:19:13;68.60;;;40.20;;
5483;SDS011;2764;48.794;8.326;2023-03-03T01:20:16;64.35;;;39.70;;
5483;SDS011;2764;48.794;8.326;2023-03-03T01:21:18;71.30;;;42.13;;
5483;SDS011;2764;48.794;8.326;2023-03-03T01:22:21;70.05;;;39.22;;
5483;SDS011;2764;48.794;8.326;2023-03-03T01:23:23;68.03;;;39.83;;
5483;SDS011;2764;48.794;8.326;2023-03-03T01:24:25;69.55;;;40.08;;
5483;SDS011;2764;48.794;8.326;2023-03-03T01:25:28;74.85;;;39.65;;
5483;SDS011;2764;48.794;8.326;2023-03-03T01:26:31;69.43;;;39.20;;
5483;SDS011;2764;48.794;8.326;2023-03-03T01:27:34;70.15;;;39.70;;
5483;SDS011;2764;48.794;8.326;2023-03-03T01:28:36;86.63;;;43.95;;
5483;SDS011;2764;48.794;8.326;2023-03-03T01:29:38;75.15;;;40.85;;
5483;SDS011;2764;48.794;8.326;2023-03-03T01:30:41;67.85;;;41.42;;
5483;SDS011;2764;48.794;8.326;2023-03-03T01:31:43;71.72;;;40.42;;
5483;SDS011;2764;48.794;8.326;2023-03-03T01:32:47;70.72;;;42.28;;
5483;SDS011;2764;48.794;8.326;2023-03-03T01:33:50;80.30;;;40.67;;
5483;SDS011;2764;48.794;8.326;2023-03-03T01:34:53;73.32;;;41.78;;
5483;SDS011;2764;48.794;8.326;2023-03-03T01:35:55;72.00;;;40.13;;
5483;SDS011;2764;48.794;8.326;2023-03-03T01:37:01;80.47;;;42.85;;
5483;SDS011;2764;48.794;8.326;2023-03-03T01:38:03;76.10;;;43.67;;
5483;SDS011;2764;48.794;8.326;2023-03-03T01:39:05;80.40;;;42.88;;
5483;SDS011;2764;48.794;8.326;2023-03-03T01:40:12;80.55;;;43.08;;
5483;SDS011;2764;48.794;8.326;2023-03-03T01:41:19;71.13;;;40.65;;
5483;SDS011;2764;48.794;8.326;2023-03-03T01:42:21;66.50;;;39.42;;
5483;SDS011;2764;48.794;8.326;2023-03-03T01:43:30;69.25;;;40.70;;
5483;SDS011;2764;48.794;8.326;2023-03-03T01:44:34;67.72;;;40.33;;
5483;SDS011;2764;48.794;8.326;2023-03-03T01:48:04;76.20;;;43.38;;
5483;SDS011;2764;48.794;8.326;2023-03-03T01:50:56;85.20;;;43.85;;
5483;SDS011;2764;48.794;8.326;2023-03-03T01:52:12;72.25;;;42.53;;
5483;SDS011;2764;48.794;8.326;2023-03-03T01:53:22;70.93;;;40.38;;
5483;SDS011;2764;48.794;8.326;2023-03-03T01:54:36;78.55;;;42.33;;
5483;SDS011;2764;48.794;8.326;2023-03-03T01:55:49;72.80;;;40.50;;
5483;SDS011;2764;48.794;8.326;2023-03-03T01:56:55;75.85;;;40.65;;
5483;SDS011;2764;48.794;8.326;2023-03-03T01:58:15;67.45;;;38.47;;
5483;SDS011;2764;48.794;8.326;2023-03-03T01:59:22;60.75;;;37.38;;
5483;SDS011;2764;48.794;8.326;2023-03-03T02:00:28;65.60;;;37.63;;
5483;SDS011;2764;48.794;8.326;2023-03-03T02:01:32;64.93;;;37.10;;
5483;SDS011;2764;48.794;8.326;2023-03-03T02:02:35;64.78;;;37.60;;
5483;SDS011;2764;48.794;8.326;2023-03-03T02:03:38;64.03;;;38.53;;
5483;SDS011;2764;48.794;8.326;2023-03-03T02:04:41;60.30;;;35.90;;
5483;SDS011;2764;48.794;8.326;2023-03-03T02:05:44;61.22;;;35.92;;
5483;SDS011;2764;48.794;8.326;2023-03-03T02:06:48;63.00;;;37.63;;
5483;SDS011;2764;48.794;8.326;2023-03-03T02:07:53;70.03;;;40.78;;
5483;SDS011;2764;48.794;8.326;2023-03-03T02:09:00;66.13;;;37.55;;
5483;SDS011;2764;48.794;8.326;2023-03-03T02:10:24;66.10;;;37.10;;
5483;SDS011;2764;48.794;8.326;2023-03-03T02:11:27;63.67;;;39.05;;
5483;SDS011;2764;48.794;8.326;2023-03-03T02:12:35;65.53;;;38.40;;
5483;SDS011;2764;48.794;8.326;2023-03-03T02:13:43;65.97;;;38.22;;
5483;SDS011;2764;48.794;8.326;2023-03-03T02:14:45;67.20;;;38.33;;
5483;SDS011;2764;48.794;8.326;2023-03-03T02:15:47;69.32;;;39.50;;
5483;SDS011;2764;48.794;8.326;2023-03-03T02:16:50;63.58;;;38.60;;
5483;SDS011;2764;48.794;8.326;2023-03-03T02:17:58;70.00;;;39.92;;
5483;SDS011;2764;48.794;8.326;2023-03-03T02:19:04;63.40;;;38.60;;
5483;SDS011;2764;48.794;8.326;2023-03-03T02:20:27;70.82;;;39.13;;
5483;SDS011;2764;48.794;8.326;2023-03-03T02:21:39;75.47;;;40.55;;
5483;SDS011;2764;48.794;8.326;2023-03-03T02:24:46;82.63;;;42.72;;
5483;SDS011;2764;48.794;8.326;2023-03-03T02:27:23;75.93;;;42.22;;
5483;SDS011;2764;48.794;8.326;2023-03-03T02:28:29;78.60;;;42.83;;
5483;SDS011;2764;48.794;8.326;2023-03-03T02:29:35;84.82;;;44.85;;
5483;SDS011;2764;48.794;8.326;2023-03-03T02:30:37;82.85;;;44.72;;
5483;SDS011;2764;48.794;8.326;2023-03-03T02:31:40;71.47;;;41.70;;
5483;SDS011;2764;48.794;8.326;2023-03-03T02:32:43;83.55;;;43.58;;
5483;SDS011;2764;48.794;8.326;2023-03-03T02:33:49;79.40;;;43.60;;
5483;SDS011;2764;48.794;8.326;2023-03-03T02:34:52;81.00;;;45.50;;
5483;SDS011;2764;48.794;8.326;2023-03-03T02:35:54;79.75;;;42.88;;
5483;SDS011;2764;48.794;8.326;2023-03-03T02:36:57;79.07;;;42.53;;
5483;SDS011;2764;48.794;8.326;2023-03-03T02:38:06;82.00;;;43.05;;
5483;SDS011;2764;48.794;8.326;2023-03-03T02:40:24;73.30;;;39.25;;
5483;SDS011;2764;48.794;8.326;2023-03-03T02:42:35;81.78;;;41.35;;
5483;SDS011;2764;48.794;8.326;2023-03-03T02:43:41;73.25;;;39.60;;
5483;SDS011;2764;48.794;8.326;2023-03-03T02:44:53;65.15;;;37.28;;
5483;SDS011;2764;48.794;8.326;2023-03-03T02:45:57;79.25;;;41.47;;
5483;SDS011;2764;48.794;8.326;2023-03-03T02:46:59;73.50;;;40.38;;
5483;SDS011;2764;48.794;8.326;2023-03-03T02:48:01;80.50;;;42.95;;
5483;SDS011;2764;48.794;8.326;2023-03-03T02:49:03;76.70;;;42.97;;
5483;SDS011;2764;48.794;8.326;2023-03-03T02:50:06;82.82;;;43.95;;
5483;SDS011;2764;48.794;8.326;2023-03-03T02:51:09;80.88;;;43.47;;
5483;SDS011;2764;48.794;8.326;2023-03-03T02:52:12;86.35;;;43.22;;
5483;SDS011;2764;48.794;8.326;2023-03-03T02:53:15;80.32;;;43.55;;
5483;SDS011;2764;48.794;8.326;2023-03-03T02:54:18;89.30;;;42.75;;
5483;SDS011;2764;48.794;8.326;2023-03-03T02:55:22;79.70;;;40.38;;
5483;SDS011;2764;48.794;8.326;2023-03-03T02:56:25;82.28;;;42.40;;
5483;SDS011;2764;48.794;8.326;2023-03-03T02:57:27;78.97;;;42.60;;
5483;SDS011;2764;48.794;8.326;2023-03-03T02:58:30;80.80;;;43.20;;
5483;SDS011;2764;48.794;8.326;2023-03-03T02:59:32;88.80;;;45.00;;
5483;SDS011;2764;48.794;8.326;2023-03-03T03:00:34;84.20;;;45.30;;
5483;SDS011;2764;48.794;8.326;2023-03-03T03:01:37;80.03;;;42.47;;
5483;SDS011;2764;48.794;8.326;2023-03-03T03:02:41;76.10;;;41.22;;
5483;SDS011;2764;48.794;8.326;2023-03-03T03:03:42;85.75;;;42.65;;
5483;SDS011;2764;48.794;8.326;2023-03-03T03:04:44;88.30;;;43.17;;
5483;SDS011;2764;48.794;8.326;2023-03-03T03:05:48;84.05;;;43.22;;
5483;SDS011;2764;48.794;8.326;2023-03-03T03:06:51;83.95;;;43.22;;
5483;SDS011;2764;48.794;8.326;2023-03-03T03:07:53;84.35;;;45.03;;
5483;SDS011;2764;48.794;8.326;2023-03-03T03:08:55;109.97;;;47.17;;
5483;SDS011;2764;48.794;8.326;2023-03-03T03:09:58;99.43;;;47.00;;
5483;SDS011;2764;48.794;8.326;2023-03-03T03:11:01;88.38;;;46.67;;
5483;SDS011;2764;48.794;8.326;2023-03-03T03:12:06;87.60;;;46.78;;
5483;SDS011;2764;48.794;8.326;2023-03-03T03:13:10;93.20;;;46.53;;
5483;SDS011;2764;48.794;8.326;2023-03-03T03:14:13;89.40;;;45.30;;
5483;SDS011;2764;48.794;8.326;2023-03-03T03:15:16;89.63;;;44.85;;
5483;SDS011;2764;48.794;8.326;2023-03-03T03:16:18;90.95;;;44.33;;
5483;SDS011;2764;48.794;8.326;2023-03-03T03:17:21;97.57;;;46.25;;
5483;SDS011;2764;48.794;8.326;2023-03-03T03:18:24;102.20;;;46.03;;
5483;SDS011;2764;48.794;8.326;2023-03-03T03:19:27;105.82;;;47.22;;
5483;SDS011;2764;48.794;8.326;2023-03-03T03:20:30;88.88;;;47.22;;
5483;SDS011;2764;48.794;8.326;2023-03-03T03:21:31;91.93;;;45.08;;
5483;SDS011;2764;48.794;8.326;2023-03-03T03:22:36;99.25;;;47.90;;
5483;SDS011;2764;48.794;8.326;2023-03-03T03:23:38;86.85;;;46.25;;
5483;SDS011;2764;48.794;8.326;2023-03-03T03:24:41;103.38;;;49.13;;
5483;SDS011;2764;48.794;8.326;2023-03-03T03:25:45;101.78;;;48.75;;
5483;SDS011;2764;48.794;8.326;2023-03-03T03:26:49;92.32;;;48.33;;
5483;SDS011;2764;48.794;8.326;2023-03-03T03:27:52;100.32;;;46.85;;
5483;SDS011;2764;48.794;8.326;2023-03-03T03:28:54;111.63;;;50.30;;
5483;SDS011;2764;48.794;8.326;2023-03-03T03:29:56;93.15;;;47.30;;
5483;SDS011;2764;48.794;8.326;2023-03-03T03:30:58;100.57;;;49.20;;
5483;SDS011;2764;48.794;8.326;2023-03-03T03:32:01;102.70;;;47.85;;
5483;SDS011;2764;48.794;8.326;2023-03-03T03:33:04;93.43;;;47.13;;
5483;SDS011;2764;48.794;8.326;2023-03-03T03:34:08;98.25;;;46.70;;
5483;SDS011;2764;48.794;8.326;2023-03-03T03:35:10;90.53;;;45.33;;
5483;SDS011;2764;48.794;8.326;2023-03-03T03:36:13;97.22;;;48.83;;
5483;SDS011;2764;48.794;8.326;2023-03-03T03:37:15;101.88;;;48.90;;
5483;SDS011;2764;48.794;8.326;2023-03-03T03:38:17;93.55;;;47.40;;
5483;SDS011;2764;48.794;8.326;2023-03-03T03:39:21;96.93;;;46.50;;
5483;SDS011;2764;48.794;8.326;2023-03-03T03:40:23;107.97;;;48.80;;
5483;SDS011;2764;48.794;8.326;2023-03-03T03:41:29;105.90;;;47.28;;
5483;SDS011;2764;48.794;8.326;2023-03-03T03:42:32;106.18;;;47.50;;
5483;SDS011;2764;48.794;8.326;2023-03-03T03:43:35;93.57;;;46.25;;
5483;SDS011;2764;48.794;8.326;2023-03-03T03:44:38;90.25;;;45.67;;
5483;SDS011;2764;48.794;8.326;2023-03-03T03:45:41;83.95;;;41.63;;
5483;SDS011;2764;48.794;8.326;2023-03-03T03:46:44;103.93;;;49.05;;
5483;SDS011;2764;48.794;8.326;2023-03-03T03:47:47;94.25;;;48.10;;
5483;SDS011;2764;48.794;8.326;2023-03-03T03:48:50;99.20;;;45.97;;
5483;SDS011;2764;48.794;8.326;2023-03-03T03:49:52;89.10;;;44.08;;
5483;SDS011;2764;48.794;8.326;2023-03-03T03:50:54;93.28;;;46.33;;
5483;SDS011;2764;48.794;8.326;2023-03-03T03:51:57;92.13;;;45.33;;
5483;SDS011;2764;48.794;8.326;2023-03-03T03:52:59;94.25;;;47.45;;
5483;SDS011;2764;48.794;8.326;2023-03-03T03:54:02;97.57;;;46.40;;
5483;SDS011;2764;48.794;8.326;2023-03-03T03:55:05;96.18;;;47.40;;
5483;SDS011;2764;48.794;8.326;2023-03-03T03:56:09;97.45;;;47.80;;
5483;SDS011;2764;48.794;8.326;2023-03-03T03:57:12;100.88;;;46.88;;
5483;SDS011;2764;48.794;8.326;2023-03-03T03:58:15;98.30;;;46.03;;
5483;SDS011;2764;48.794;8.326;2023-03-03T03:59:18;105.53;;;49.33;;
5483;SDS011;2764;48.794;8.326;2023-03-03T04:00:20;103.35;;;49.13;;
5483;SDS011;2764;48.794;8.326;2023-03-03T04:01:22;93.05;;;47.38;;
5483;SDS011;2764;48.794;8.326;2023-03-03T04:02:25;100.65;;;48.60;;
5483;SDS011;2764;48.794;8.326;2023-03-03T04:03:28;97.57;;;47.97;;
5483;SDS011;2764;48.794;8.326;2023-03-03T04:04:31;97.70;;;45.85;;
5483;SDS011;2764;48.794;8.326;2023-03-03T04:05:33;91.93;;;47.22;;
5483;SDS011;2764;48.794;8.326;2023-03-03T04:06:36;94.55;;;47.47;;
5483;SDS011;2764;48.794;8.326;2023-03-03T04:07:39;108.30;;;49.33;;
5483;SDS011;2764;48.794;8.326;2023-03-03T04:08:45;95.70;;;46.88;;
5483;SDS011;2764;48.794;8.326;2023-03-03T04:09:46;96.55;;;47.35;;
5483;SDS011;2764;48.794;8.326;2023-03-03T04:10:49;99.78;;;47.60;;
5483;SDS011;2764;48.794;8.326;2023-03-03T04:11:51;100.32;;;49.28;;
5483;SDS011;2764;48.794;8.326;2023-03-03T04:12:54;85.05;;;46.00;;
5483;SDS011;2764;48.794;8.326;2023-03-03T04:13:56;88.68;;;45.40;;
5483;SDS011;2764;48.794;8.326;2023-03-03T04:15:01;107.20;;;45.83;;
5483;SDS011;2764;48.794;8.326;2023-03-03T04:16:04;95.03;;;47.85;;
5483;SDS011;2764;48.794;8.326;2023-03-03T04:17:06;103.70;;;47.80;;
5483;SDS011;2764;48.794;8.326;2023-03-03T04:18:10;110.25;;;49.38;;
5483;SDS011;2764;48.794;8.326;2023-03-03T04:19:13;98.93;;;48.15;;
5483;SDS011;2764;48.794;8.326;2023-03-03T04:20:15;96.90;;;46.20;;
5483;SDS011;2764;48.794;8.326;2023-03-03T04:21:18;97.38;;;46.15;;
5483;SDS011;2764;48.794;8.326;2023-03-03T04:22:24;100.35;;;48.45;;
5483;SDS011;2764;48.794;8.326;2023-03-03T04:23:27;96.10;;;44.70;;
5483;SDS011;2764;48.794;8.326;2023-03-03T04:24:29;95.25;;;46.22;;
5483;SDS011;2764;48.794;8.326;2023-03-03T04:25:30;88.97;;;45.55;;
5483;SDS011;2764;48.794;8.326;2023-03-03T04:26:32;92.18;;;45.25;;
5483;SDS011;2764;48.794;8.326;2023-03-03T04:27:35;92.70;;;45.30;;
5483;SDS011;2764;48.794;8.326;2023-03-03T04:28:38;90.05;;;46.75;;
5483;SDS011;2764;48.794;8.326;2023-03-03T04:29:42;81.53;;;42.75;;
5483;SDS011;2764;48.794;8.326;2023-03-03T04:30:44;83.07;;;45.33;;
5483;SDS011;2764;48.794;8.326;2023-03-03T04:31:52;100.93;;;47.70;;
5483;SDS011;2764;48.794;8.326;2023-03-03T04:32:58;81.82;;;44.13;;
5483;SDS011;2764;48.794;8.326;2023-03-03T04:34:01;84.03;;;43.22;;
5483;SDS011;2764;48.794;8.326;2023-03-03T04:35:04;100.55;;;47.50;;
5483;SDS011;2764;48.794;8.326;2023-03-03T04:36:17;92.85;;;45.45;;
5483;SDS011;2764;48.794;8.326;2023-03-03T04:37:20;110.20;;;48.80;;
5483;SDS011;2764;48.794;8.326;2023-03-03T04:38:23;133.00;;;53.72;;
5483;SDS011;2764;48.794;8.326;2023-03-03T04:39:27;110.63;;;50.53;;
5483;SDS011;2764;48.794;8.326;2023-03-03T04:40:31;109.45;;;48.60;;
5483;SDS011;2764;48.794;8.326;2023-03-03T04:41:33;108.93;;;49.88;;
5483;SDS011;2764;48.794;8.326;2023-03-03T04:42:35;110.70;;;52.97;;
5483;SDS011;2764;48.794;8.326;2023-03-03T04:43:40;113.38;;;51.45;;
5483;SDS011;2764;48.794;8.326;2023-03-03T04:44:42;111.15;;;51.80;;
5483;SDS011;2764;48.794;8.326;2023-03-03T04:45:44;119.60;;;52.63;;
5483;SDS011;2764;48.794;8.326;2023-03-03T04:46:46;112.22;;;51.92;;
5483;SDS011;2764;48.794;8.326;2023-03-03T04:47:48;119.07;;;54.80;;
5483;SDS011;2764;48.794;8.326;2023-03-03T04:48:51;109.78;;;50.78;;
5483;SDS011;2764;48.794;8.326;2023-03-03T04:49:54;101.30;;;48.67;;
5483;SDS011;2764;48.794;8.326;2023-03-03T04:50:56;108.45;;;49.90;;
5483;SDS011;2764;48.794;8.326;2023-03-03T04:51:59;105.13;;;51.65;;
5483;SDS011;2764;48.794;8.326;2023-03-03T04:53:02;114.75;;;50.47;;
5483;SDS011;2764;48.794;8.326;2023-03-03T04:54:04;103.53;;;48.90;;
5483;SDS011;2764;48.794;8.326;2023-03-03T04:55:07;103.53;;;47.83;;
5483;SDS011;2764;48.794;8.326;2023-03-03T04:56:12;102.63;;;47.58;;
5483;SDS011;2764;48.794;8.326;2023-03-03T04:57:14;82.80;;;43.13;;
5483;SDS011;2764;48.794;8.326;2023-03-03T04:58:17;107.57;;;51.60;;
5483;SDS011;2764;48.794;8.326;2023-03-03T04:59:20;103.95;;;50.50;;
5483;SDS011;2764;48.794;8.326;2023-03-03T05:00:22;92.10;;;46.28;;
5483;SDS011;2764;48.794;8.326;2023-03-03T05:01:25;90.95;;;45.28;;
5483;SDS011;2764;48.794;8.326;2023-03-03T05:02:27;87.63;;;46.78;;
5483;SDS011;2764;48.794;8.326;2023-03-03T05:03:30;82.97;;;43.80;;
5483;SDS011;2764;48.794;8.326;2023-03-03T05:04:32;79.90;;;43.88;;
5483;SDS011;2764;48.794;8.326;2023-03-03T05:05:35;92.25;;;45.33;;
5483;SDS011;2764;48.794;8.326;2023-03-03T05:06:38;90.22;;;43.58;;
5483;SDS011;2764;48.794;8.326;2023-03-03T05:07:41;83.40;;;42.38;;
5483;SDS011;2764;48.794;8.326;2023-03-03T05:08:43;89.28;;;44.47;;
5483;SDS011;2764;48.794;8.326;2023-03-03T05:09:47;84.90;;;44.10;;
5483;SDS011;2764;48.794;8.326;2023-03-03T05:10:52;83.63;;;44.28;;
5483;SDS011;2764;48.794;8.326;2023-03-03T05:11:56;107.03;;;46.45;;
5483;SDS011;2764;48.794;8.326;2023-03-03T05:12:58;97.10;;;46.85;;
5483;SDS011;2764;48.794;8.326;2023-03-03T05:14:00;95.72;;;47.15;;
5483;SDS011;2764;48.794;8.326;2023-03-03T05:15:04;90.43;;;45.53;;
5483;SDS011;2764;48.794;8.326;2023-03-03T05:16:10;97.88;;;46.28;;
5483;SDS011;2764;48.794;8.326;2023-03-03T05:17:13;92.40;;;46.17;;
5483;SDS011;2764;48.794;8.326;2023-03-03T05:18:17;100.22;;;48.42;;
5483;SDS011;2764;48.794;8.326;2023-03-03T05:19:19;98.15;;;48.22;;
5483;SDS011;2764;48.794;8.326;2023-03-03T05:20:22;95.65;;;46.50;;
5483;SDS011;2764;48.794;8.326;2023-03-03T05:21:24;101.63;;;47.58;;
5483;SDS011;2764;48.794;8.326;2023-03-03T05:22:27;88.32;;;45.97;;
5483;SDS011;2764;48.794;8.326;2023-03-03T05:23:29;97.95;;;48.92;;
5483;SDS011;2764;48.794;8.326;2023-03-03T05:24:32;103.07;;;49.88;;
5483;SDS011;2764;48.794;8.326;2023-03-03T05:25:34;92.20;;;48.58;;
5483;SDS011;2764;48.794;8.326;2023-03-03T05:26:37;101.22;;;49.15;;
5483;SDS011;2764;48.794;8.326;2023-03-03T05:27:40;98.75;;;48.38;;
5483;SDS011;2764;48.794;8.326;2023-03-03T05:28:43;100.18;;;48.92;;
5483;SDS011;2764;48.794;8.326;2023-03-03T05:29:47;95.68;;;49.72;;
5483;SDS011;2764;48.794;8.326;2023-03-03T05:30:50;89.40;;;45.15;;
5483;SDS011;2764;48.794;8.326;2023-03-03T05:31:52;93.47;;;46.88;;
5483;SDS011;2764;48.794;8.326;2023-03-03T05:32:54;102.88;;;49.47;;
5483;SDS011;2764;48.794;8.326;2023-03-03T05:33:56;89.40;;;47.38;;
5483;SDS011;2764;48.794;8.326;2023-03-03T05:34:59;80.78;;;43.00;;
5483;SDS011;2764;48.794;8.326;2023-03-03T05:36:01;94.57;;;46.88;;
5483;SDS011;2764;48.794;8.326;2023-03-03T05:37:03;83.00;;;43.90;;
5483;SDS011;2764;48.794;8.326;2023-03-03T05:38:07;94.65;;;46.58;;
5483;SDS011;2764;48.794;8.326;2023-03-03T05:39:10;99.85;;;46.45;;
5483;SDS011;2764;48.794;8.326;2023-03-03T05:40:13;95.32;;;47.90;;
5483;SDS011;2764;48.794;8.326;2023-03-03T05:41:15;85.88;;;44.30;;
5483;SDS011;2764;48.794;8.326;2023-03-03T05:42:18;87.63;;;46.35;;
5483;SDS011;2764;48.794;8.326;2023-03-03T05:43:23;82.70;;;43.50;;
5483;SDS011;2764;48.794;8.326;2023-03-03T05:44:26;88.22;;;43.40;;
5483;SDS011;2764;48.794;8.326;2023-03-03T05:45:28;84.43;;;44.25;;
5483;SDS011;2764;48.794;8.326;2023-03-03T05:46:30;83.93;;;44.10;;
5483;SDS011;2764;48.794;8.326;2023-03-03T05:47:33;82.00;;;43.60;;
5483;SDS011;2764;48.794;8.326;2023-03-03T05:48:38;89.65;;;44.28;;
5483;SDS011;2764;48.794;8.326;2023-03-03T05:49:40;87.75;;;45.20;;
5483;SDS011;2764;48.794;8.326;2023-03-03T05:50:42;82.88;;;42.83;;
5483;SDS011;2764;48.794;8.326;2023-03-03T05:51:48;74.47;;;42.05;;
5483;SDS011;2764;48.794;8.326;2023-03-03T05:52:51;78.93;;;43.00;;
5483;SDS011;2764;48.794;8.326;2023-03-03T05:53:55;77.22;;;43.30;;
5483;SDS011;2764;48.794;8.326;2023-03-03T05:54:57;97.35;;;46.22;;
5483;SDS011;2764;48.794;8.326;2023-03-03T05:56:02;78.38;;;43.75;;
5483;SDS011;2764;48.794;8.326;2023-03-03T05:57:05;80.55;;;43.25;;
5483;SDS011;2764;48.794;8.326;2023-03-03T05:58:09;87.90;;;45.92;;
5483;SDS011;2764;48.794;8.326;2023-03-03T05:59:14;83.40;;;45.50;;
5483;SDS011;2764;48.794;8.326;2023-03-03T06:00:16;92.63;;;44.50;;
5483;SDS011;2764;48.794;8.326;2023-03-03T06:01:22;82.72;;;45.97;;
5483;SDS011;2764;48.794;8.326;2023-03-03T06:02:25;75.95;;;42.47;;
5483;SDS011;2764;48.794;8.326;2023-03-03T06:03:27;79.65;;;45.20;;
5483;SDS011;2764;48.794;8.326;2023-03-03T06:04:30;79.43;;;44.28;;
5483;SDS011;2764;48.794;8.326;2023-03-03T06:05:33;80.20;;;43.65;;
5483;SDS011;2764;48.794;8.326;2023-03-03T06:06:35;75.97;;;41.78;;
5483;SDS011;2764;48.794;8.326;2023-03-03T06:07:38;83.38;;;45.25;;
5483;SDS011;2764;48.794;8.326;2023-03-03T06:08:40;81.18;;;44.85;;
5483;SDS011;2764;48.794;8.326;2023-03-03T06:09:43;80.65;;;44.63;;
5483;SDS011;2764;48.794;8.326;2023-03-03T06:10:45;84.55;;;45.83;;
5483;SDS011;2764;48.794;8.326;2023-03-03T06:11:47;83.82;;;46.47;;
5483;SDS011;2764;48.794;8.326;2023-03-03T06:12:50;85.03;;;46.25;;
5483;SDS011;2764;48.794;8.326;2023-03-03T06:13:52;84.25;;;47.47;;
5483;SDS011;2764;48.794;8.326;2023-03-03T06:14:55;84.70;;;43.58;;
5483;SDS011;2764;48.794;8.326;2023-03-03T06:15:57;85.32;;;44.95;;
5483;SDS011;2764;48.794;8.326;2023-03-03T06:16:59;86.95;;;46.20;;
5483;SDS011;2764;48.794;8.326;2023-03-03T06:18:01;84.80;;;44.33;;
5483;SDS011;2764;48.794;8.326;2023-03-03T06:19:04;78.82;;;42.45;;
5483;SDS011;2764;48.794;8.326;2023-03-03T06:20:06;76.50;;;42.05;;
5483;SDS011;2764;48.794;8.326;2023-03-03T06:21:12;79.75;;;41.50;;
5483;SDS011;2764;48.794;8.326;2023-03-03T06:22:14;69.03;;;39.65;;
5483;SDS011;2764;48.794;8.326;2023-03-03T06:23:22;75.63;;;42.53;;
5483;SDS011;2764;48.794;8.326;2023-03-03T06:24:24;74.07;;;40.65;;
5483;SDS011;2764;48.794;8.326;2023-03-03T06:25:30;76.70;;;42.30;;
5483;SDS011;2764;48.794;8.326;2023-03-03T06:26:36;70.28;;;41.33;;
5483;SDS011;2764;48.794;8.326;2023-03-03T06:27:38;80.88;;;42.97;;
5483;SDS011;2764;48.794;8.326;2023-03-03T06:28:41;75.47;;;41.00;;
5483;SDS011;2764;48.794;8.326;2023-03-03T06:29:43;68.10;;;40.95;;
5483;SDS011;2764;48.794;8.326;2023-03-03T06:30:46;70.88;;;40.33;;
5483;SDS011;2764;48.794;8.326;2023-03-03T06:31:48;79.90;;;43.75;;
5483;SDS011;2764;48.794;8.326;2023-03-03T06:32:54;78.28;;;43.78;;
5483;SDS011;2764;48.794;8.326;2023-03-03T06:33:56;75.50;;;41.22;;
5483;SDS011;2764;48.794;8.326;2023-03-03T06:34:59;136.75;;;63.58;;
5483;SDS011;2764;48.794;8.326;2023-03-03T06:36:05;121.53;;;60.08;;
5483;SDS011;2764;48.794;8.326;2023-03-03T06:37:07;114.43;;;58.40;;
5483;SDS011;2764;48.794;8.326;2023-03-03T06:38:10;138.23;;;70.95;;
5483;SDS011;2764;48.794;8.326;2023-03-03T06:39:15;142.25;;;66.85;;
5483;SDS011;2764;48.794;8.326;2023-03-03T06:40:17;111.78;;;56.50;;